createdAt,value
2023-02-11T00:00:54.203Z,149285.13
2023-02-11T00:03:25.411Z,149274.91
2023-02-11T00:06:09.047Z,149267.25
2023-02-11T00:08:41.020Z,149250.59
2023-02-11T00:11:15.694Z,149219.88
2023-02-11T00:13:50.221Z,149212.19
2023-02-11T00:16:23.251Z,149219.88
2023-02-11T00:18:54.470Z,149217.31
2023-02-11T00:21:27.257Z,149225.00
2023-02-11T00:24:00.328Z,149213.50
2023-02-11T00:26:33.092Z,149218.63
2023-02-11T00:29:07.786Z,149205.81
2023-02-11T00:31:38.600Z,149194.31
2023-02-11T00:34:09.288Z,149177.66
2023-02-11T00:36:39.907Z,149178.97
2023-02-11T00:39:11.704Z,149172.53
2023-02-11T00:41:42.261Z,149184.09
2023-02-11T00:44:15.721Z,149193.00
2023-02-11T00:46:46.049Z,149182.78
2023-02-11T00:49:16.903Z,149203.22
2023-02-11T00:51:47.654Z,149207.06
2023-02-11T00:54:18.373Z,149201.97
2023-02-11T00:56:49.064Z,149196.84
2023-02-11T00:59:24.187Z,149196.84
2023-02-11T01:01:54.402Z,149195.59
2023-02-11T01:04:24.771Z,149194.31
2023-02-11T01:06:56.156Z,149196.84
2023-02-11T01:09:29.085Z,149199.44
2023-02-11T01:11:59.541Z,149198.13
2023-02-11T01:14:32.845Z,149201.97
2023-02-11T01:17:03.192Z,149201.97
2023-02-11T01:19:33.580Z,149201.97
2023-02-11T01:22:04.179Z,149212.19
2023-02-11T01:24:34.407Z,149209.66
2023-02-11T01:27:04.726Z,149204.53
2023-02-11T01:29:38.078Z,149196.84
2023-02-11T01:32:08.952Z,149195.59
2023-02-11T01:34:39.364Z,149186.63
2023-02-11T01:37:09.961Z,149181.50
2023-02-11T01:39:40.303Z,149189.19
2023-02-11T01:42:10.923Z,149190.47
2023-02-11T01:44:44.589Z,149199.44
2023-02-11T01:47:15.096Z,149203.22
2023-02-11T01:49:49.270Z,149210.94
2023-02-11T01:52:25.451Z,149231.38
2023-02-11T01:55:11.171Z,149230.13
2023-02-11T01:57:45.327Z,149231.38
2023-02-11T02:00:22.118Z,149239.09
2023-02-11T02:02:59.742Z,149248.06
2023-02-11T02:05:36.313Z,149244.19
2023-02-11T02:08:13.432Z,149242.94
2023-02-11T02:10:46.804Z,149222.44
2023-02-11T02:13:18.688Z,149225.00
2023-02-11T02:15:55.350Z,149214.78
2023-02-11T02:18:39.986Z,149207.06
2023-02-11T02:21:48.724Z,149189.19
2023-02-11T02:24:56.850Z,149194.31
2023-02-11T02:27:45.557Z,149176.38
2023-02-11T02:30:41.513Z,149158.47
2023-02-11T02:33:38.101Z,149146.97
2023-02-11T02:36:20.002Z,149127.78
2023-02-11T02:38:56.516Z,149113.69
2023-02-11T02:41:32.256Z,149111.16
2023-02-11T02:44:03.605Z,149120.09
2023-02-11T02:46:36.092Z,149120.09
2023-02-11T02:49:15.982Z,149116.28
2023-02-11T02:52:08.533Z,149113.69
2023-02-11T02:55:12.415Z,149095.78
2023-02-11T02:57:57.275Z,149086.88
2023-02-11T03:00:35.857Z,149085.56
2023-02-11T03:03:19.156Z,149086.88
2023-02-11T03:06:01.741Z,149089.41
2023-02-11T03:08:37.891Z,149091.97
2023-02-11T03:11:10.080Z,149090.66
2023-02-11T03:13:42.362Z,149098.34
2023-02-11T03:16:17.022Z,149102.22
2023-02-11T03:18:53.248Z,149104.75
2023-02-11T03:21:28.259Z,149109.84
2023-02-11T03:24:02.426Z,149098.34
2023-02-11T03:26:40.312Z,149098.34
2023-02-11T03:29:17.662Z,149091.97
2023-02-11T03:31:59.318Z,149081.75
2023-02-11T03:34:35.976Z,149075.31
2023-02-11T03:37:13.394Z,149067.69
2023-02-11T03:39:50.134Z,149063.84
2023-02-11T03:42:22.528Z,149066.38
2023-02-11T03:44:57.491Z,149065.09
2023-02-11T03:47:31.646Z,149052.34
2023-02-11T03:50:05.402Z,149043.38
2023-02-11T03:52:38.900Z,149045.91
2023-02-11T03:55:14.902Z,149052.34
2023-02-11T03:57:45.779Z,149068.94
2023-02-11T04:00:17.729Z,149065.09
2023-02-11T04:02:48.343Z,149056.13
2023-02-11T04:05:20.242Z,149051.03
2023-02-11T04:07:54.050Z,149034.44
2023-02-11T04:10:24.274Z,149029.31
2023-02-11T04:12:54.709Z,149019.09
2023-02-11T04:15:28.389Z,149025.47
2023-02-11T04:17:59.663Z,149020.34
2023-02-11T04:20:30.005Z,149034.44
2023-02-11T04:23:03.219Z,149038.28
2023-02-11T04:25:33.654Z,149042.13
2023-02-11T04:28:04.357Z,149053.63
2023-02-11T04:30:34.651Z,149060.00
2023-02-11T04:33:04.960Z,149070.22
2023-02-11T04:35:35.710Z,149086.88
2023-02-11T04:38:08.885Z,149077.91
2023-02-11T04:40:39.314Z,149088.13
2023-02-11T04:43:09.982Z,149097.09
2023-02-11T04:45:40.734Z,149103.47
2023-02-11T04:48:11.430Z,149109.84
2023-02-11T04:50:41.825Z,149106.06
2023-02-11T04:53:15.178Z,149106.06
2023-02-11T04:55:45.832Z,149102.22
2023-02-11T04:58:16.248Z,149112.44
2023-02-11T05:00:47.031Z,149122.66
2023-02-11T05:03:17.888Z,149109.84
2023-02-11T05:05:48.894Z,149112.44
2023-02-11T05:08:22.494Z,149108.59
2023-02-11T05:10:53.178Z,149118.81
2023-02-11T05:13:23.543Z,149114.97
2023-02-11T05:15:54.341Z,149112.44
2023-02-11T05:18:25.285Z,149102.22
2023-02-11T05:20:56.039Z,149111.16
2023-02-11T05:23:29.359Z,149099.63
2023-02-11T05:25:59.835Z,149080.44
2023-02-11T05:28:30.359Z,149066.38
2023-02-11T05:31:01.189Z,149063.84
2023-02-11T05:33:32.206Z,149057.47
2023-02-11T05:36:03.615Z,149047.22
2023-02-11T05:38:37.619Z,149048.50
2023-02-11T05:41:09.536Z,149031.84
2023-02-11T05:43:40.249Z,149043.38
2023-02-11T05:46:11.167Z,149025.47
2023-02-11T05:48:41.695Z,149025.47
2023-02-11T05:51:14.701Z,149012.66
2023-02-11T05:53:49.402Z,149007.56
2023-02-11T05:56:20.190Z,149005.03
2023-02-11T05:58:50.691Z,149002.44
2023-02-11T06:01:23.029Z,149008.88
2023-02-11T06:03:53.394Z,148999.91
2023-02-11T06:06:23.844Z,149002.44
2023-02-11T06:08:58.052Z,149010.13
2023-02-11T06:11:28.578Z,149012.66
2023-02-11T06:13:59.264Z,149020.34
2023-02-11T06:16:30.015Z,149040.81
2023-02-11T06:19:00.459Z,149053.63
2023-02-11T06:21:43.028Z,149066.38
2023-02-11T06:24:28.569Z,149075.31
2023-02-11T06:27:08.726Z,149089.41
2023-02-11T06:29:39.719Z,149097.09
2023-02-11T06:32:28.189Z,149107.31
2023-02-11T06:35:01.076Z,149123.94
2023-02-11T06:37:31.932Z,149131.63
2023-02-11T06:40:05.194Z,149149.50
2023-02-11T06:42:38.782Z,149159.78
2023-02-11T06:45:14.798Z,149159.78
2023-02-11T06:47:47.874Z,149178.97
2023-02-11T06:50:20.207Z,149191.72
2023-02-11T06:52:52.839Z,149210.94
2023-02-11T06:55:28.055Z,149241.63
2023-02-11T06:58:05.798Z,149260.81
2023-02-11T07:00:38.686Z,149285.13
2023-02-11T07:03:12.456Z,149308.19
2023-02-11T07:05:45.551Z,149324.81
2023-02-11T07:08:17.319Z,149349.13
2023-02-11T07:10:51.200Z,149385.00
2023-02-11T07:13:41.637Z,149418.25
2023-02-11T07:16:19.688Z,149463.09
2023-02-11T07:18:54.457Z,149498.94
2023-02-11T07:21:28.784Z,149539.91
2023-02-11T07:24:02.471Z,149588.59
2023-02-11T07:26:35.834Z,149627.03
2023-02-11T07:29:06.597Z,149683.44
2023-02-11T07:31:37.906Z,149755.19
2023-02-11T07:34:08.971Z,149792.38
2023-02-11T07:36:44.180Z,149833.38
2023-02-11T07:39:16.652Z,149884.69
2023-02-11T07:41:53.468Z,149930.84
2023-02-11T07:44:25.780Z,149955.22
2023-02-11T07:47:00.483Z,150024.47
2023-02-11T07:49:33.918Z,150062.97
2023-02-11T07:52:05.489Z,150075.81
2023-02-11T07:54:39.516Z,150116.88
2023-02-11T07:57:13.863Z,150142.53
2023-02-11T07:59:52.652Z,150160.50
2023-02-11T08:02:25.455Z,150175.91
2023-02-11T08:04:59.490Z,150200.28
2023-02-11T08:07:30.703Z,150214.41
2023-02-11T08:10:15.005Z,150242.69
2023-02-11T08:13:11.922Z,150249.09
2023-02-11T08:15:51.913Z,150288.88
2023-02-11T08:18:23.643Z,150305.59
2023-02-11T08:20:55.442Z,150318.41
2023-02-11T08:23:30.126Z,150358.22
2023-02-11T08:28:56.318Z,150383.94
2023-02-11T08:34:19.537Z,150468.72
2023-02-11T08:36:52.718Z,150490.53
2023-02-11T08:39:34.125Z,150517.53
2023-02-11T08:42:05.802Z,150535.50
2023-02-11T08:44:51.376Z,150566.38
2023-02-11T08:47:23.993Z,150563.78
2023-02-11T08:49:58.888Z,150577.94
2023-02-11T08:52:32.425Z,150588.22
2023-02-11T08:55:05.736Z,150604.94
2023-02-11T08:57:38.506Z,150606.22
2023-02-11T09:00:15.044Z,150633.19
2023-02-11T09:02:45.889Z,150671.75
2023-02-11T09:05:17.254Z,150702.59
2023-02-11T09:07:48.387Z,150730.91
2023-02-11T09:10:19.605Z,150770.75
2023-02-11T09:12:50.359Z,150806.81
2023-02-11T09:15:29.587Z,150814.50
2023-02-11T09:18:01.037Z,150822.25
2023-02-11T09:20:34.494Z,150838.94
2023-02-11T09:23:09.349Z,150850.53
2023-02-11T09:25:44.014Z,150851.81
2023-02-11T09:28:14.859Z,150844.09
2023-02-11T09:33:57.689Z,150920.00
2023-02-11T09:36:30.950Z,150925.16
2023-02-11T09:39:02.919Z,150944.47
2023-02-11T09:41:56.890Z,150965.03
2023-02-11T09:44:30.581Z,150983.03
2023-02-11T09:47:08.605Z,150979.19
2023-02-11T09:49:44.671Z,151033.25
2023-02-11T09:52:22.305Z,151042.28
2023-02-11T09:55:00.031Z,151025.50
2023-02-11T09:57:35.784Z,151039.69
2023-02-11T10:00:19.585Z,151043.56
2023-02-11T10:03:08.999Z,151065.41
2023-02-11T10:05:53.131Z,151096.34
2023-02-11T10:08:25.901Z,151083.44
2023-02-11T10:11:01.434Z,151057.72
2023-02-11T10:13:44.048Z,151082.16
2023-02-11T10:16:28.783Z,151080.84
2023-02-11T10:19:29.859Z,151070.56
2023-02-11T10:22:10.104Z,151064.13
2023-02-11T10:24:42.463Z,151049.97
2023-02-11T10:27:21.237Z,151055.13
2023-02-11T10:29:55.933Z,151057.72
2023-02-11T10:32:36.583Z,151062.88
2023-02-11T10:35:19.036Z,151093.75
2023-02-11T10:37:51.883Z,151115.59
2023-02-11T10:40:25.169Z,151163.25
2023-02-11T10:42:59.738Z,151302.34
2023-02-11T10:45:42.194Z,151428.63
2023-02-11T10:48:47.812Z,151419.59
2023-02-11T10:51:30.653Z,151458.28
2023-02-11T10:54:21.662Z,151507.25
2023-02-11T10:56:55.317Z,151475.00
2023-02-11T10:59:34.452Z,151451.84
2023-02-11T11:02:09.391Z,151413.16
2023-02-11T11:04:46.241Z,151405.41
2023-02-11T11:07:25.122Z,151396.38
2023-02-11T11:10:00.686Z,151396.38
2023-02-11T11:12:42.262Z,151371.94
2023-02-11T11:15:30.304Z,151411.91
2023-02-11T11:18:22.457Z,151449.25
2023-02-11T11:21:03.230Z,151484.03
2023-02-11T11:23:40.324Z,151485.34
2023-02-11T11:26:15.203Z,151499.50
2023-02-11T11:28:55.734Z,151535.63
2023-02-11T11:31:30.424Z,151553.63
2023-02-11T11:34:03.914Z,151560.13
2023-02-11T11:36:40.666Z,151505.97
2023-02-11T11:39:29.507Z,151451.84
2023-02-11T11:42:05.027Z,151475.00
2023-02-11T11:44:37.761Z,151527.88
2023-02-11T11:47:29.102Z,151593.66
2023-02-11T11:50:32.756Z,151634.88
2023-02-11T11:53:09.163Z,151591.03
2023-02-11T11:55:48.248Z,151574.31
2023-02-11T11:58:31.621Z,151561.41
2023-02-11T12:01:18.620Z,151597.47
2023-02-11T12:04:23.211Z,151596.19
2023-02-11T12:07:06.728Z,151606.50
2023-02-11T12:09:51.485Z,151636.16
2023-02-11T12:12:38.797Z,151628.47
2023-02-11T12:15:28.602Z,151763.84
2023-02-11T12:18:13.992Z,151820.66
2023-02-11T12:21:13.084Z,151859.38
2023-02-11T12:23:55.705Z,151887.75
2023-02-11T12:26:31.845Z,151889.03
2023-02-11T12:29:18.179Z,151898.09
2023-02-11T12:32:08.302Z,151836.13
2023-02-11T12:34:57.121Z,151792.25
2023-02-11T12:37:42.121Z,151781.94
2023-02-11T12:43:24.533Z,151714.84
2023-02-11T12:46:35.946Z,151707.13
2023-02-11T12:49:33.027Z,151721.28
2023-02-11T12:52:26.570Z,151707.13
2023-02-11T12:55:05.517Z,151632.28
2023-02-11T12:57:38.713Z,151714.84
2023-02-11T13:00:18.897Z,151761.31
2023-02-11T13:03:00.372Z,151765.13
2023-02-11T13:05:44.518Z,151790.97
2023-02-11T13:08:23.203Z,151783.22
2023-02-11T13:10:59.897Z,151815.50
2023-02-11T13:13:36.928Z,151805.13
2023-02-11T13:16:11.204Z,151820.66
2023-02-11T13:19:05.231Z,151818.03
2023-02-11T13:22:12.505Z,151821.94
2023-02-11T13:24:48.587Z,151852.94
2023-02-11T13:27:33.690Z,151842.56
2023-02-11T13:30:29.054Z,151811.59
2023-02-11T13:33:21.198Z,151792.25
2023-02-11T13:36:24.144Z,151792.25
2023-02-11T13:39:00.786Z,151838.69
2023-02-11T13:41:40.696Z,151854.22
2023-02-11T13:44:37.315Z,151820.66
2023-02-11T13:47:10.496Z,151847.78
2023-02-11T13:49:45.557Z,151842.56
2023-02-11T13:52:30.540Z,151851.66
2023-02-11T13:55:07.715Z,151842.56
2023-02-11T13:57:42.395Z,151820.66
2023-02-11T14:01:03.425Z,151840.00
2023-02-11T14:03:52.406Z,151846.44
2023-02-11T14:07:01.273Z,151838.69
2023-02-11T14:10:04.944Z,151833.53
2023-02-11T14:12:40.814Z,151810.34
2023-02-11T14:15:37.769Z,151799.97
2023-02-11T14:18:42.769Z,151779.34
2023-02-11T14:24:45.526Z,151766.47
2023-02-11T14:27:47.042Z,151765.13
2023-02-11T14:30:44.057Z,151752.28
2023-02-11T14:33:57.078Z,151748.38
2023-02-11T14:37:01.934Z,151731.63
2023-02-11T14:39:59.881Z,151716.13
2023-02-11T14:42:37.101Z,151692.94
2023-02-11T14:45:19.375Z,151670.97
2023-02-11T14:50:54.196Z,151625.84
2023-02-11T14:53:28.661Z,151623.31
2023-02-11T14:56:11.357Z,151647.81
2023-02-11T14:58:52.921Z,151612.94
2023-02-11T15:01:34.657Z,151603.97
2023-02-11T15:04:08.582Z,151598.81
2023-02-11T15:06:44.562Z,151594.91
2023-02-11T15:09:25.029Z,151607.78
2023-02-11T15:12:09.945Z,151583.28
2023-02-11T15:15:00.140Z,151565.28
2023-02-11T15:20:36.132Z,151535.63
2023-02-11T15:23:17.965Z,151526.59
2023-02-11T15:25:56.428Z,151535.63
2023-02-11T15:28:40.075Z,151513.69
2023-02-11T15:31:27.334Z,151512.41
2023-02-11T15:33:59.042Z,151476.34
2023-02-11T15:36:36.665Z,151481.47
2023-02-11T15:39:21.351Z,151473.72
2023-02-11T15:41:53.766Z,151459.53
2023-02-11T15:44:41.738Z,151438.94
2023-02-11T15:47:41.232Z,151405.41
2023-02-11T15:50:28.638Z,151410.56
2023-02-11T15:53:13.580Z,151387.41
2023-02-11T15:55:56.232Z,151386.09
2023-02-11T15:58:28.659Z,151361.59
2023-02-11T16:01:21.748Z,151355.19
2023-02-11T16:04:05.728Z,151348.75
2023-02-11T16:06:54.803Z,151342.31
2023-02-11T16:12:31.111Z,151304.94
2023-02-11T16:15:26.416Z,151299.78
2023-02-11T16:18:00.145Z,151281.75
2023-02-11T16:20:43.829Z,151293.38
2023-02-11T16:23:26.497Z,151288.22
2023-02-11T16:26:16.882Z,151261.16
2023-02-11T16:31:46.486Z,151250.84
2023-02-11T16:34:24.504Z,151241.81
2023-02-11T16:36:59.821Z,151244.41
2023-02-11T16:39:31.947Z,151237.94
2023-02-11T16:42:07.099Z,151232.78
2023-02-11T16:44:41.117Z,151240.53
2023-02-11T16:47:25.631Z,151235.38
2023-02-11T16:49:57.813Z,151222.50
2023-02-11T16:52:31.986Z,151230.25
2023-02-11T16:55:06.037Z,151232.78
2023-02-11T16:57:37.364Z,151219.94
2023-02-11T17:00:12.429Z,151205.78
2023-02-11T17:02:44.605Z,151176.16
2023-02-11T17:05:53.146Z,151168.41
2023-02-11T17:08:31.405Z,151142.66
2023-02-11T17:11:12.185Z,151123.34
2023-02-11T17:13:44.458Z,151089.88
2023-02-11T17:16:23.780Z,151073.16
2023-02-11T17:18:58.850Z,151059.00
2023-02-11T17:21:32.028Z,151049.97
2023-02-11T17:24:05.915Z,151047.41
2023-02-11T17:26:40.921Z,151022.97
2023-02-11T17:29:14.459Z,151031.94
2023-02-11T17:31:45.245Z,151024.25
2023-02-11T17:34:15.945Z,151006.19
2023-02-11T17:36:46.699Z,150995.91
2023-02-11T17:39:21.394Z,151021.66
2023-02-11T17:41:52.137Z,151007.47
2023-02-11T17:44:22.961Z,150993.38
2023-02-11T17:46:57.151Z,150988.22
2023-02-11T17:49:28.583Z,150970.19
2023-02-11T17:51:59.988Z,150965.03
2023-02-11T17:54:33.391Z,150950.88
2023-02-11T17:57:05.623Z,150952.16
2023-02-11T17:59:37.139Z,150948.28
2023-02-11T18:02:10.450Z,150948.28
2023-02-11T18:04:43.747Z,150934.16
2023-02-11T18:07:17.026Z,150945.72
2023-02-11T18:09:50.950Z,150947.00
2023-02-11T18:12:26.700Z,150961.16
2023-02-11T18:14:58.404Z,150950.88
2023-02-11T18:17:29.618Z,150957.31
2023-02-11T18:20:01.097Z,150952.16
2023-02-11T18:22:37.028Z,150953.44
2023-02-11T18:25:11.849Z,150961.16
2023-02-11T18:27:46.357Z,150962.44
2023-02-11T18:30:22.969Z,150979.19
2023-02-11T18:32:58.525Z,150979.19
2023-02-11T18:35:29.457Z,150979.19
2023-02-11T18:38:04.869Z,150988.22
2023-02-11T18:40:43.566Z,150985.63
2023-02-11T18:43:17.540Z,150992.03
2023-02-11T18:45:50.534Z,150993.38
2023-02-11T18:48:22.651Z,150993.38
2023-02-11T18:50:53.368Z,151019.09
2023-02-11T18:53:26.055Z,151002.34
2023-02-11T18:56:00.568Z,150988.22
2023-02-11T18:58:31.793Z,150977.88
2023-02-11T19:01:07.031Z,151006.19
2023-02-11T19:03:38.240Z,150989.50
2023-02-11T19:06:10.984Z,150998.50
2023-02-11T19:08:42.256Z,150990.78
2023-02-11T19:11:21.486Z,150970.19
2023-02-11T19:13:52.703Z,151004.94
2023-02-11T19:16:25.204Z,150984.34
2023-02-11T19:18:57.179Z,150985.63
2023-02-11T19:21:28.182Z,150992.03
2023-02-11T19:24:00.315Z,150988.22
2023-02-11T19:26:35.737Z,150986.91
2023-02-11T19:29:12.194Z,150977.88
2023-02-11T19:31:46.811Z,150985.63
2023-02-11T19:34:20.724Z,150972.72
2023-02-11T19:36:51.468Z,150972.72
2023-02-11T19:39:24.889Z,150954.75
2023-02-11T19:41:58.807Z,150936.72
2023-02-11T19:44:28.997Z,150930.31
2023-02-11T19:47:00.745Z,150934.16
2023-02-11T19:49:31.944Z,150938.00
2023-02-11T19:52:03.445Z,150927.69
2023-02-11T19:54:34.320Z,150914.88
2023-02-11T19:57:08.525Z,150913.53
2023-02-11T19:59:39.155Z,150921.28
2023-02-11T20:02:10.925Z,150922.56
2023-02-11T20:04:41.291Z,150926.44
2023-02-11T20:07:11.946Z,150923.84
2023-02-11T20:09:42.743Z,150936.72
2023-02-11T20:12:16.686Z,150934.16
2023-02-11T20:14:47.183Z,150949.59
2023-02-11T20:17:17.907Z,150968.91
2023-02-11T20:19:48.426Z,150993.38
2023-02-11T20:22:19.151Z,150988.22
2023-02-11T20:24:49.860Z,151017.81
2023-02-11T20:27:32.683Z,151051.25
2023-02-11T20:30:03.100Z,151042.28
2023-02-11T20:32:38.566Z,151019.09
2023-02-11T20:35:10.901Z,151002.34
2023-02-11T20:37:44.106Z,150984.34
2023-02-11T20:40:16.174Z,151024.25
2023-02-11T20:42:49.334Z,150997.19
2023-02-11T20:45:20.552Z,150988.22
2023-02-11T20:47:51.105Z,150977.88
2023-02-11T20:50:21.704Z,150989.50
2023-02-11T20:52:52.060Z,150986.91
2023-02-11T20:55:22.715Z,150989.50
2023-02-11T20:57:56.066Z,151008.81
2023-02-11T21:00:27.134Z,151010.06
2023-02-11T21:02:57.599Z,150995.91
2023-02-11T21:05:28.273Z,151007.47
2023-02-11T21:07:59.214Z,150986.91
2023-02-11T21:10:29.892Z,150956.03
2023-02-11T21:13:03.670Z,150939.31
2023-02-11T21:15:35.629Z,150938.00
2023-02-11T21:18:06.192Z,150935.44
2023-02-11T21:20:36.847Z,150911.00
2023-02-11T21:23:07.725Z,150918.69
2023-02-11T21:25:38.134Z,150913.53
2023-02-11T21:28:11.697Z,150920.00
2023-02-11T21:30:46.006Z,150916.16
2023-02-11T21:33:16.799Z,150926.44
2023-02-11T21:35:47.427Z,150992.03
2023-02-11T21:38:19.930Z,151039.69
2023-02-11T21:40:50.362Z,151024.25
2023-02-11T21:43:25.457Z,151021.66
2023-02-11T21:45:56.617Z,151082.16
2023-02-11T21:48:27.761Z,151079.56
2023-02-11T21:50:58.515Z,151089.88
2023-02-11T21:53:28.973Z,151096.34
2023-02-11T21:56:06.817Z,151101.50
2023-02-11T21:58:40.090Z,151123.34
2023-02-11T22:01:15.716Z,151124.63
2023-02-11T22:03:48.903Z,151131.09
2023-02-11T22:06:21.634Z,151136.25
2023-02-11T22:08:52.805Z,151122.06
2023-02-11T22:11:23.782Z,151137.53
2023-02-11T22:14:01.326Z,151164.53
2023-02-11T22:16:32.300Z,151225.09
2023-02-11T22:19:03.882Z,151225.09
2023-02-11T22:21:34.550Z,151243.09
2023-02-11T22:24:05.045Z,151286.88
2023-02-11T22:26:35.774Z,151298.50
2023-02-11T22:29:11.222Z,151281.75
2023-02-11T22:31:41.860Z,151271.44
2023-02-11T22:34:12.649Z,151276.59
2023-02-11T22:36:47.307Z,151272.72
2023-02-11T22:39:19.915Z,151288.22
2023-02-11T22:41:51.454Z,151329.41
2023-02-11T22:44:25.049Z,151355.19
2023-02-11T22:46:56.750Z,151361.59
2023-02-11T22:49:29.119Z,151366.75
2023-02-11T22:51:59.623Z,151334.56
2023-02-11T22:54:30.457Z,151335.84
2023-02-11T22:57:01.252Z,151334.56
2023-02-11T22:59:34.992Z,151302.34
2023-02-11T23:02:05.767Z,151311.38
2023-02-11T23:04:36.502Z,151301.06
2023-02-11T23:07:06.927Z,151324.28
2023-02-11T23:09:37.699Z,151325.53
2023-02-11T23:12:08.946Z,151297.19
2023-02-11T23:14:42.903Z,151294.66
2023-02-11T23:17:13.199Z,151281.75
2023-02-11T23:19:43.652Z,151246.97
2023-02-11T23:22:15.740Z,151241.81
2023-02-11T23:24:46.490Z,151225.09
2023-02-11T23:27:16.974Z,151213.47
2023-02-11T23:29:50.274Z,151195.47
2023-02-11T23:32:21.133Z,151208.31
2023-02-11T23:34:53.283Z,151196.75
2023-02-11T23:37:23.787Z,151151.69
2023-02-11T23:39:54.538Z,151195.47
2023-02-11T23:42:25.026Z,151169.69
2023-02-11T23:44:59.006Z,151164.53
2023-02-11T23:47:29.731Z,151134.91
2023-02-11T23:50:00.504Z,151111.78
2023-02-11T23:52:31.065Z,151134.91
2023-02-11T23:55:01.798Z,151127.22
2023-02-11T23:57:32.815Z,151134.91
